createdAt,value
2022-10-11T00:01:00.414Z,7.65
2022-10-11T00:04:02.355Z,6.25
2022-10-11T00:07:04.450Z,10.68
2022-10-11T00:10:07.648Z,15.27
2022-10-11T00:13:09.556Z,19.30
2022-10-11T00:16:12.855Z,11.25
2022-10-11T00:22:16.703Z,9.80
2022-10-11T00:25:19.316Z,8.27
2022-10-11T00:28:21.214Z,9.32
2022-10-11T00:31:23.601Z,13.18
2022-10-11T00:34:25.474Z,9.63
2022-10-11T00:37:27.455Z,7.70
2022-10-11T00:40:29.313Z,7.18
2022-10-11T00:43:31.960Z,4.22
2022-10-11T00:46:33.944Z,3.72
2022-10-11T00:49:49.207Z,4.10
2022-10-11T00:52:56.301Z,4.43
2022-10-11T00:56:07.343Z,3.70
2022-10-11T00:59:14.536Z,4.00
2022-10-11T01:02:17.616Z,4.43
2022-10-11T01:05:32.453Z,3.55
2022-10-11T01:08:34.760Z,4.70
2022-10-11T01:11:39.305Z,4.75
2022-10-11T01:14:55.901Z,5.57
2022-10-11T01:18:07.454Z,7.93
2022-10-11T01:21:26.577Z,6.15
2022-10-11T01:24:52.501Z,4.53
2022-10-11T01:28:04.269Z,9.48
2022-10-11T01:31:20.575Z,8.55
2022-10-11T01:34:30.878Z,5.72
2022-10-11T01:37:40.729Z,5.57
2022-10-11T01:40:49.121Z,5.13
2022-10-11T01:43:57.678Z,3.33
2022-10-11T01:46:59.539Z,3.65
2022-10-11T01:50:02.537Z,3.55
2022-10-11T01:53:16.148Z,3.38
2022-10-11T01:59:31.794Z,3.50
2022-10-11T02:02:54.958Z,4.07
2022-10-11T02:06:16.384Z,4.30
2022-10-11T02:09:31.562Z,4.47
2022-10-11T02:12:40.561Z,4.75
2022-10-11T02:15:45.368Z,5.38
2022-10-11T02:18:51.118Z,6.95
2022-10-11T02:21:57.974Z,6.50
2022-10-11T02:25:02.976Z,8.25
2022-10-11T02:28:14.191Z,7.63
2022-10-11T02:31:17.722Z,7.40
2022-10-11T02:34:33.665Z,6.72
2022-10-11T02:38:00.563Z,6.05
2022-10-11T02:41:13.131Z,6.25
2022-10-11T02:44:23.831Z,5.73
2022-10-11T02:47:30.509Z,5.38
2022-10-11T02:50:32.394Z,5.85
2022-10-11T02:53:34.358Z,6.00
2022-10-11T02:56:36.234Z,6.20
2022-10-11T02:59:38.081Z,5.53
2022-10-11T03:02:39.934Z,5.10
2022-10-11T03:05:42.025Z,4.07
2022-10-11T03:08:44.944Z,4.32
2022-10-11T03:11:46.788Z,5.05
2022-10-11T03:14:48.667Z,4.82
2022-10-11T03:17:50.495Z,4.95
2022-10-11T03:20:52.530Z,4.97
2022-10-11T03:23:54.387Z,4.40
2022-10-11T03:26:56.256Z,4.10
2022-10-11T03:29:58.149Z,4.72
2022-10-11T03:33:00.029Z,3.85
2022-10-11T03:36:03.152Z,3.90
2022-10-11T03:39:05.692Z,4.00
2022-10-11T03:42:07.562Z,4.85
2022-10-11T03:45:10.059Z,5.30
2022-10-11T03:48:12.409Z,5.93
2022-10-11T03:51:15.263Z,5.07
2022-10-11T03:54:17.115Z,4.75
2022-10-11T03:57:19.424Z,5.47
2022-10-11T04:00:21.334Z,5.60
2022-10-11T04:03:23.259Z,4.80
2022-10-11T04:06:25.333Z,4.70
2022-10-11T04:09:27.747Z,8.35
2022-10-11T04:12:29.617Z,5.03
2022-10-11T04:15:31.842Z,5.03
2022-10-11T04:18:33.678Z,4.53
2022-10-11T04:21:35.577Z,4.68
2022-10-11T04:24:37.583Z,4.45
2022-10-11T04:27:39.654Z,4.57
2022-10-11T04:30:41.489Z,4.60
2022-10-11T04:33:43.485Z,3.78
2022-10-11T04:36:49.587Z,7.97
2022-10-11T04:39:51.875Z,5.03
2022-10-11T04:42:53.859Z,5.60
2022-10-11T04:45:55.947Z,6.65
2022-10-11T04:48:57.998Z,7.03
2022-10-11T04:51:59.863Z,6.85
2022-10-11T04:55:01.838Z,7.05
2022-10-11T04:58:03.720Z,7.05
2022-10-11T05:01:05.609Z,14.05
2022-10-11T05:04:07.607Z,21.60
2022-10-11T05:07:09.509Z,20.40
2022-10-11T05:10:11.476Z,27.10
2022-10-11T05:13:13.358Z,20.00
2022-10-11T05:16:16.044Z,16.05
2022-10-11T05:22:20.210Z,13.68
2022-10-11T05:25:24.600Z,19.08
2022-10-11T05:28:27.533Z,19.27
2022-10-11T05:31:29.471Z,13.73
2022-10-11T05:34:31.522Z,6.47
2022-10-11T05:37:33.372Z,4.47
2022-10-11T05:40:36.578Z,11.38
2022-10-11T05:43:38.508Z,18.23
2022-10-11T05:46:40.430Z,12.82
2022-10-11T05:49:42.258Z,12.35
2022-10-11T05:52:44.133Z,12.10
2022-10-11T05:55:46.176Z,15.80
2022-10-11T05:58:48.553Z,12.10
2022-10-11T06:01:51.407Z,8.37
2022-10-11T06:04:53.491Z,5.78
2022-10-11T06:07:55.402Z,6.72
2022-10-11T06:10:57.344Z,9.32
2022-10-11T06:13:59.235Z,10.48
2022-10-11T06:17:01.138Z,8.38
2022-10-11T06:20:03.942Z,13.48
2022-10-11T06:23:05.811Z,12.40
2022-10-11T06:26:09.334Z,11.30
2022-10-11T06:29:11.706Z,8.88
2022-10-11T06:32:13.667Z,7.20
2022-10-11T06:35:15.540Z,8.05
2022-10-11T06:38:17.460Z,9.77
2022-10-11T06:41:28.661Z,11.85
2022-10-11T06:44:30.627Z,9.95
2022-10-11T06:47:32.555Z,4.72
2022-10-11T06:50:57.865Z,2.10
2022-10-11T06:53:59.834Z,4.07
2022-10-11T06:57:01.742Z,13.15
2022-10-11T07:00:07.970Z,5.72
2022-10-11T07:03:13.646Z,6.30
2022-10-11T07:06:23.639Z,4.55
2022-10-11T07:09:25.563Z,2.90
2022-10-11T07:12:28.897Z,2.90
2022-10-11T07:18:32.795Z,2.90
2022-10-11T07:21:35.574Z,2.35
2022-10-11T07:24:37.471Z,3.03
2022-10-11T07:27:39.369Z,3.17
2022-10-11T07:30:42.406Z,2.92
2022-10-11T07:33:44.562Z,2.70
2022-10-11T07:36:47.165Z,2.85
2022-10-11T07:39:49.720Z,4.47
2022-10-11T07:42:51.610Z,3.33
2022-10-11T07:45:55.648Z,3.95
2022-10-11T07:48:57.566Z,4.63
2022-10-11T07:51:59.415Z,3.70
2022-10-11T07:55:01.265Z,2.28
2022-10-11T07:58:03.107Z,1.27
2022-10-11T08:01:05.827Z,0.90
2022-10-11T08:04:07.857Z,1.13
2022-10-11T08:07:09.730Z,1.00
2022-10-11T08:10:11.640Z,0.88
2022-10-11T08:13:14.492Z,1.20
2022-10-11T08:16:16.912Z,0.98
2022-10-11T08:19:18.984Z,0.83
2022-10-11T08:22:20.812Z,1.20
2022-10-11T08:25:22.797Z,0.95
2022-10-11T08:28:24.769Z,0.95
2022-10-11T08:31:26.712Z,1.40
2022-10-11T08:34:28.683Z,1.20
2022-10-11T08:37:30.623Z,1.42
2022-10-11T08:40:35.320Z,1.25
2022-10-11T08:43:53.120Z,1.35
2022-10-11T08:47:03.102Z,1.08
2022-10-11T08:50:07.695Z,1.50
2022-10-11T08:53:22.371Z,1.27
2022-10-11T08:56:26.606Z,1.45
2022-10-11T08:59:36.475Z,1.10
2022-10-11T09:03:07.379Z,1.00
2022-10-11T09:06:23.955Z,1.40
2022-10-11T09:09:54.451Z,1.13
2022-10-11T09:13:31.149Z,1.38
2022-10-11T09:16:45.708Z,1.35
2022-10-11T09:20:17.645Z,1.65
2022-10-11T09:23:52.853Z,1.85
2022-10-11T09:27:01.495Z,1.90
2022-10-11T09:30:11.658Z,1.45
2022-10-11T09:33:27.496Z,1.70
2022-10-11T09:36:50.668Z,2.67
2022-10-11T09:40:30.832Z,3.92
2022-10-11T09:43:32.819Z,3.17
2022-10-11T09:46:36.478Z,1.52
2022-10-11T09:49:42.775Z,1.92
2022-10-11T09:52:56.358Z,1.75
2022-10-11T09:59:25.154Z,1.73
2022-10-11T10:02:31.065Z,1.50
2022-10-11T10:05:36.906Z,1.35
2022-10-11T10:08:38.883Z,1.20
2022-10-11T10:11:40.801Z,1.20
2022-10-11T10:14:42.662Z,1.50
2022-10-11T10:17:52.979Z,1.10
2022-10-11T10:20:59.484Z,1.35
2022-10-11T10:24:05.302Z,1.42
2022-10-11T10:27:07.156Z,1.05
2022-10-11T10:30:08.953Z,1.10
2022-10-11T10:33:12.082Z,1.30
2022-10-11T10:36:18.803Z,1.08
2022-10-11T10:39:34.896Z,1.50
2022-10-11T10:42:37.673Z,1.20
2022-10-11T10:46:08.300Z,1.10
2022-10-11T10:53:21.390Z,1.35
2022-10-11T10:56:37.478Z,1.10
2022-10-11T10:59:50.161Z,1.23
2022-10-11T11:03:03.137Z,1.73
2022-10-11T11:06:06.999Z,1.60
2022-10-11T11:09:21.132Z,0.95
2022-10-11T11:12:56.444Z,1.52
2022-10-11T11:16:07.650Z,0.80
2022-10-11T11:19:20.506Z,0.90
2022-10-11T11:22:53.004Z,0.93
2022-10-11T11:26:31.618Z,1.83
2022-10-11T11:29:55.854Z,1.42
2022-10-11T11:33:07.391Z,1.17
2022-10-11T11:36:17.939Z,0.95
2022-10-11T11:39:30.044Z,2.25
2022-10-11T11:42:41.857Z,2.30
2022-10-11T11:46:01.293Z,1.10
2022-10-11T11:49:15.599Z,1.30
2022-10-11T11:52:26.661Z,0.95
2022-10-11T11:55:54.572Z,2.22
2022-10-11T11:59:09.852Z,1.55
2022-10-11T12:02:43.240Z,6.15
2022-10-11T12:06:14.346Z,2.30
2022-10-11T12:09:19.085Z,1.33
2022-10-11T12:12:35.533Z,6.28
2022-10-11T12:15:38.831Z,3.38
2022-10-11T12:22:35.338Z,4.68
2022-10-11T12:25:41.749Z,4.65
2022-10-11T12:29:00.600Z,2.05
2022-10-11T12:32:02.883Z,2.88
2022-10-11T12:35:33.807Z,2.47
2022-10-11T12:38:40.227Z,1.48
2022-10-11T12:41:51.819Z,1.17
2022-10-11T12:45:24.167Z,1.70
2022-10-11T12:48:52.588Z,1.27
2022-10-11T12:51:54.466Z,1.00
2022-10-11T12:55:09.001Z,1.30
2022-10-11T12:58:41.857Z,1.42
2022-10-11T13:01:58.183Z,1.08
2022-10-11T13:05:16.864Z,1.00
2022-10-11T13:08:25.055Z,2.60
2022-10-11T13:11:57.261Z,3.10
2022-10-11T13:15:00.119Z,1.48
2022-10-11T13:18:02.856Z,1.90
2022-10-11T13:21:23.072Z,1.80
2022-10-11T13:24:28.625Z,2.10
2022-10-11T13:27:30.949Z,4.20
2022-10-11T13:30:35.967Z,1.17
2022-10-11T13:33:42.208Z,1.70
2022-10-11T13:36:44.171Z,1.50
2022-10-11T13:39:49.083Z,5.13
2022-10-11T13:42:53.728Z,3.45
2022-10-11T13:45:58.694Z,2.63
2022-10-11T13:49:24.220Z,1.55
2022-10-11T13:52:26.908Z,2.20
2022-10-11T13:55:49.896Z,2.10
2022-10-11T13:58:54.250Z,2.93
2022-10-11T14:02:01.885Z,2.13
2022-10-11T14:05:04.251Z,5.57
2022-10-11T14:08:29.268Z,2.08
2022-10-11T14:11:40.048Z,2.25
2022-10-11T14:14:43.017Z,1.70
2022-10-11T14:17:45.905Z,1.90
2022-10-11T14:20:47.803Z,1.80
2022-10-11T14:23:52.759Z,2.10
2022-10-11T14:26:56.412Z,2.30
2022-10-11T14:30:25.212Z,3.10
2022-10-11T14:33:20.867Z,2.80
2022-10-11T14:36:23.779Z,3.35
2022-10-11T14:39:28.071Z,3.08
2022-10-11T14:42:29.939Z,2.92
2022-10-11T14:45:31.887Z,3.40
2022-10-11T14:48:54.453Z,2.60
2022-10-11T14:51:59.011Z,2.80
2022-10-11T14:55:01.154Z,3.33
2022-10-11T14:58:03.642Z,3.90
2022-10-11T15:01:05.672Z,4.20
2022-10-11T15:04:09.280Z,3.70
2022-10-11T15:07:12.770Z,4.78
2022-10-11T15:10:17.603Z,4.15
2022-10-11T15:13:19.673Z,4.75
2022-10-11T15:16:22.434Z,4.35
2022-10-11T15:19:25.236Z,3.95
2022-10-11T15:22:27.369Z,3.33
2022-10-11T15:25:29.938Z,3.67
2022-10-11T15:28:33.344Z,5.30
2022-10-11T15:31:35.558Z,4.60
2022-10-11T15:34:37.479Z,6.28
2022-10-11T15:37:39.678Z,11.13
2022-10-11T15:40:41.617Z,10.68
2022-10-11T15:43:44.958Z,9.45
2022-10-11T15:49:48.815Z,13.43
2022-10-11T15:52:51.854Z,13.75
2022-10-11T15:55:56.658Z,19.67
2022-10-11T15:58:58.694Z,23.08
2022-10-11T16:02:00.559Z,12.55
2022-10-11T16:05:02.475Z,12.25
2022-10-11T16:08:04.564Z,9.95
2022-10-11T16:11:07.894Z,8.40
2022-10-11T16:14:11.848Z,6.95
2022-10-11T16:17:13.852Z,7.57
2022-10-11T16:20:18.588Z,7.20
2022-10-11T16:23:21.977Z,10.40
2022-10-11T16:29:25.748Z,12.60
2022-10-11T16:32:28.384Z,10.48
2022-10-11T16:35:32.520Z,14.18
2022-10-11T16:38:35.365Z,13.32
2022-10-11T16:41:37.532Z,18.33
2022-10-11T16:44:39.671Z,16.10
2022-10-11T16:47:42.660Z,12.55
2022-10-11T16:50:44.484Z,12.43
2022-10-11T16:53:46.352Z,10.65
2022-10-11T16:56:49.847Z,10.85
2022-10-11T16:59:51.793Z,10.63
2022-10-11T17:02:53.688Z,11.15
2022-10-11T17:05:55.626Z,9.73
2022-10-11T17:08:57.633Z,8.45
2022-10-11T17:11:59.534Z,10.50
2022-10-11T17:15:01.390Z,9.48
2022-10-11T17:18:03.959Z,9.85
2022-10-11T17:21:08.676Z,9.70
2022-10-11T17:24:10.545Z,8.35
2022-10-11T17:27:12.677Z,7.93
2022-10-11T17:30:15.091Z,10.13
2022-10-11T17:33:16.908Z,15.27
2022-10-11T17:36:28.071Z,12.57
2022-10-11T17:39:30.029Z,9.80
2022-10-11T17:42:31.962Z,12.68
2022-10-11T17:45:33.786Z,15.55
2022-10-11T17:48:36.961Z,15.30
2022-10-11T17:51:40.200Z,15.32
2022-10-11T17:54:42.139Z,16.65
2022-10-11T17:57:44.075Z,14.27
2022-10-11T18:00:46.065Z,13.43
2022-10-11T18:04:03.150Z,12.77
2022-10-11T18:07:05.095Z,14.73
2022-10-11T18:10:07.422Z,12.95
2022-10-11T18:13:14.548Z,12.82
2022-10-11T18:16:19.694Z,14.70
2022-10-11T18:19:21.704Z,14.48
2022-10-11T18:22:23.682Z,15.50
2022-10-11T18:25:25.914Z,16.52
2022-10-11T18:28:27.880Z,16.52
2022-10-11T18:31:33.678Z,18.65
2022-10-11T18:34:35.895Z,16.45
2022-10-11T18:37:37.814Z,26.40
2022-10-11T18:40:44.753Z,21.48
2022-10-11T18:43:54.620Z,21.73
2022-10-11T18:46:56.497Z,36.05
2022-10-11T18:49:58.360Z,25.60
2022-10-11T18:53:00.481Z,27.30
2022-10-11T18:56:04.268Z,31.02
2022-10-11T18:59:07.617Z,33.22
2022-10-11T19:02:12.008Z,36.67
2022-10-11T19:05:14.158Z,35.63
2022-10-11T19:08:16.068Z,33.92
2022-10-11T19:11:22.129Z,36.08
2022-10-11T19:14:26.867Z,37.78
2022-10-11T19:17:28.838Z,24.77
2022-10-11T19:20:30.775Z,24.98
2022-10-11T19:23:39.254Z,24.45
2022-10-11T19:26:42.129Z,25.00
2022-10-11T19:29:43.994Z,24.80
2022-10-11T19:32:45.862Z,26.73
2022-10-11T19:35:58.352Z,25.80
2022-10-11T19:39:00.214Z,39.92
2022-10-11T19:42:02.589Z,52.80
2022-10-11T19:45:05.046Z,50.37
2022-10-11T19:48:07.045Z,44.67
2022-10-11T19:51:12.402Z,41.72
2022-10-11T19:54:15.261Z,40.38
2022-10-11T19:57:17.118Z,48.45
2022-10-11T20:00:19.208Z,52.38
2022-10-11T20:03:21.072Z,50.25
2022-10-11T20:06:24.098Z,43.35
2022-10-11T20:09:30.645Z,42.30
2022-10-11T20:12:33.721Z,40.70
2022-10-11T20:15:40.239Z,34.78
2022-10-11T20:18:42.649Z,34.90
2022-10-11T20:21:45.295Z,41.83
2022-10-11T20:24:47.237Z,43.35
2022-10-11T20:27:49.107Z,40.85
2022-10-11T20:30:50.931Z,42.75
2022-10-11T20:33:59.052Z,40.45
2022-10-11T20:37:00.892Z,38.63
2022-10-11T20:40:05.931Z,40.58
2022-10-11T20:43:08.107Z,42.78
2022-10-11T20:46:15.672Z,41.42
2022-10-11T20:49:19.880Z,40.85
2022-10-11T20:52:22.141Z,39.80
2022-10-11T20:55:24.039Z,37.38
2022-10-11T20:58:25.994Z,43.83
2022-10-11T21:01:31.757Z,37.65
2022-10-11T21:04:34.276Z,39.92
2022-10-11T21:07:36.485Z,40.07
2022-10-11T21:10:39.603Z,36.87
2022-10-11T21:13:42.225Z,39.22
2022-10-11T21:16:44.179Z,38.58
2022-10-11T21:19:46.043Z,35.75
2022-10-11T21:22:47.967Z,46.42
2022-10-11T21:25:49.780Z,53.67
2022-10-11T21:28:52.392Z,46.22
2022-10-11T21:31:54.267Z,66.13
2022-10-11T21:34:56.136Z,62.72
2022-10-11T21:37:59.684Z,59.63
2022-10-11T21:41:05.396Z,45.30
2022-10-11T21:44:07.225Z,45.10
2022-10-11T21:47:10.036Z,51.33
2022-10-11T21:50:12.216Z,50.40
2022-10-11T21:53:14.123Z,51.42
2022-10-11T21:56:16.156Z,46.70
2022-10-11T21:59:18.062Z,56.92
2022-10-11T22:02:19.950Z,54.45
2022-10-11T22:05:21.828Z,53.85
2022-10-11T22:08:23.915Z,51.10
2022-10-11T22:11:25.813Z,49.53
2022-10-11T22:14:29.280Z,55.13
2022-10-11T22:17:31.164Z,53.15
2022-10-11T22:20:33.333Z,50.08
2022-10-11T22:23:35.587Z,42.38
2022-10-11T22:26:37.633Z,47.25
2022-10-11T22:29:39.499Z,47.50
2022-10-11T22:32:41.459Z,47.13
2022-10-11T22:35:43.372Z,35.63
2022-10-11T22:38:45.653Z,32.60
2022-10-11T22:41:47.510Z,33.15
2022-10-11T22:44:50.693Z,29.30
2022-10-11T22:47:52.564Z,32.17
2022-10-11T22:50:54.629Z,32.00
2022-10-11T22:53:56.505Z,31.65
2022-10-11T22:56:58.326Z,33.33
2022-10-11T23:00:00.198Z,33.58
2022-10-11T23:03:02.137Z,32.63
2022-10-11T23:06:04.232Z,28.40
2022-10-11T23:09:06.128Z,36.10
2022-10-11T23:12:08.164Z,34.67
2022-10-11T23:15:10.975Z,24.95
2022-10-11T23:18:13.132Z,23.10
2022-10-11T23:21:14.955Z,27.27
2022-10-11T23:24:16.873Z,24.60
2022-10-11T23:27:18.762Z,19.77
2022-10-11T23:30:20.641Z,19.15
2022-10-11T23:33:22.500Z,13.38
2022-10-11T23:36:25.861Z,12.18
2022-10-11T23:39:28.251Z,15.93
2022-10-11T23:42:30.178Z,19.77
2022-10-11T23:45:31.975Z,20.17
2022-10-11T23:48:33.832Z,20.88
2022-10-11T23:51:35.813Z,19.00
2022-10-11T23:54:37.713Z,17.48
2022-10-11T23:57:39.871Z,14.30
